Lakewood, Colorado
Current Conditions -  °F | °C
As of 6:52 PM on Thursday 18 Dec 2014 (Local Time) from KBJC Reporting Station
Scattered Clouds Scattered Clouds  
Wind Chill: 34°   Ceiling: Unl
Heat Index: 34°   Visibility: 20mi
Dew Point: 25°   Wind: 3mph
Humidity: 70%   Direction: 310°NW
Pressure: 30.06"   Gusts: NA
Location:  39.71°N, 105.08°W
Report Text: KBJC 190152Z 31003KT 20SM SCT100 01/M04 A3006
Loading
Personal Weather Stations






























Interactive Weather Map New forecast layout! Learn more

10-Day Weather Forecast

Advertisements
Track Severe Weather on mobile